createdAt,value
2022-11-27T00:00:36.998Z,37.5550
2022-11-27T00:01:39.273Z,37.5120
2022-11-27T00:02:41.751Z,37.5330
2022-11-27T00:03:44.061Z,37.5500
2022-11-27T00:04:44.007Z,37.4440
2022-11-27T00:05:46.298Z,37.4440
2022-11-27T00:06:48.535Z,37.4400
2022-11-27T00:07:50.847Z,37.4980
2022-11-27T00:08:50.890Z,37.5260
2022-11-27T00:09:53.162Z,37.5540
2022-11-27T00:10:55.493Z,37.5640
2022-11-27T00:11:57.711Z,37.6130
2022-11-27T00:12:57.852Z,37.6220
2022-11-27T00:14:00.133Z,37.5820
2022-11-27T00:15:02.420Z,37.6070
2022-11-27T00:16:04.911Z,37.6280
2022-11-27T00:17:01.112Z,37.5900
2022-11-27T00:18:02.869Z,37.4950
2022-11-27T00:19:05.085Z,37.3540
2022-11-27T00:20:07.313Z,37.3110
2022-11-27T00:21:07.503Z,37.2150
2022-11-27T00:22:09.749Z,37.1990
2022-11-27T00:23:12.030Z,37.2080
2022-11-27T00:24:14.340Z,37.1240
2022-11-27T00:25:16.659Z,37.0830
2022-11-27T00:26:16.876Z,37.0220
2022-11-27T00:27:19.138Z,37.0280
2022-11-27T00:28:21.450Z,37.0260
2022-11-27T00:29:23.767Z,36.9980
2022-11-27T00:30:26.024Z,37.0100
2022-11-27T00:31:28.521Z,37.0270
2022-11-27T00:32:30.513Z,37.0780
2022-11-27T00:33:32.777Z,37.1050
2022-11-27T00:34:32.882Z,37.1480
2022-11-27T00:35:35.180Z,37.1050
2022-11-27T00:36:37.602Z,37.1540
2022-11-27T00:37:39.787Z,37.1760
2022-11-27T00:38:42.108Z,37.1660
2022-11-27T00:39:44.452Z,37.1660
2022-11-27T00:40:44.623Z,37.1170
2022-11-27T00:41:47.156Z,37.1390
2022-11-27T00:42:49.263Z,37.1550
2022-11-27T00:43:51.595Z,37.2340
2022-11-27T00:44:52.790Z,37.3070
2022-11-27T00:45:55.190Z,37.4230
2022-11-27T00:46:57.554Z,37.4850
2022-11-27T00:47:59.613Z,37.4510
2022-11-27T00:49:01.884Z,37.3690
2022-11-27T00:50:04.179Z,37.4400
2022-11-27T00:51:06.454Z,37.4830
2022-11-27T00:52:06.743Z,37.4620
2022-11-27T00:53:08.881Z,37.4750
2022-11-27T00:54:11.154Z,37.4730
2022-11-27T00:55:13.425Z,37.4890
2022-11-27T00:56:13.524Z,37.5240
2022-11-27T00:57:15.976Z,37.4830
2022-11-27T00:58:18.067Z,37.4720
2022-11-27T00:59:20.320Z,37.4950
2022-11-27T01:00:20.462Z,37.5050
2022-11-27T01:01:22.783Z,37.5060
2022-11-27T01:02:25.110Z,37.4560
2022-11-27T01:03:27.280Z,37.4500
2022-11-27T01:04:27.397Z,37.3990
2022-11-27T01:05:29.681Z,37.4180
2022-11-27T01:06:31.975Z,37.4240
2022-11-27T01:07:34.302Z,37.4070
2022-11-27T01:08:36.405Z,37.5080
2022-11-27T01:09:38.642Z,37.4860
2022-11-27T01:10:40.933Z,37.4530
2022-11-27T01:11:43.257Z,37.4680
2022-11-27T01:12:45.703Z,37.4240
2022-11-27T01:13:47.845Z,37.3820
2022-11-27T01:14:50.158Z,37.3440
2022-11-27T01:15:50.346Z,37.3920
2022-11-27T01:16:52.634Z,37.4290
2022-11-27T01:17:54.971Z,37.4180
2022-11-27T01:18:57.211Z,37.3590
2022-11-27T01:19:59.470Z,37.4230
2022-11-27T01:21:01.744Z,37.4680
2022-11-27T01:22:04.037Z,37.4440
2022-11-27T01:23:04.186Z,37.5080
2022-11-27T01:24:06.429Z,37.4830
2022-11-27T01:25:08.656Z,37.4440
2022-11-27T01:26:10.910Z,37.4100
2022-11-27T01:27:11.051Z,37.4040
2022-11-27T01:28:13.514Z,37.3230
2022-11-27T01:29:15.616Z,37.3180
2022-11-27T01:30:17.899Z,37.3230
2022-11-27T01:31:18.075Z,37.3270
2022-11-27T01:32:20.329Z,37.3530
2022-11-27T01:33:22.653Z,37.3180
2022-11-27T01:34:24.911Z,37.3060
2022-11-27T01:35:25.018Z,37.3590
2022-11-27T01:36:27.362Z,37.4260
2022-11-27T01:37:29.674Z,37.3660
2022-11-27T01:38:32.110Z,37.4180
2022-11-27T01:39:34.307Z,37.3720
2022-11-27T01:40:36.636Z,37.3110
2022-11-27T01:41:38.876Z,37.3360
2022-11-27T01:42:41.175Z,37.3820
2022-11-27T01:43:43.504Z,37.4420
2022-11-27T01:44:45.752Z,37.5040
2022-11-27T01:45:45.883Z,37.5250
2022-11-27T01:46:48.245Z,37.4920
2022-11-27T01:47:50.460Z,37.4650
2022-11-27T01:48:52.789Z,37.4170
2022-11-27T01:49:52.894Z,37.4910
2022-11-27T01:50:55.164Z,37.4570
2022-11-27T01:51:57.431Z,37.4470
2022-11-27T01:52:59.698Z,37.4980
2022-11-27T01:53:59.853Z,37.4580
2022-11-27T01:55:02.076Z,37.4580
2022-11-27T01:56:04.373Z,37.4470
2022-11-27T01:57:06.683Z,37.4330
2022-11-27T01:58:08.981Z,37.4430
2022-11-27T01:59:11.344Z,37.4550
2022-11-27T02:00:13.591Z,37.4390
2022-11-27T02:01:13.768Z,37.3730
2022-11-27T02:02:16.298Z,37.3440
2022-11-27T02:03:18.380Z,37.3560
2022-11-27T02:04:20.613Z,37.3450
2022-11-27T02:05:20.724Z,37.3520
2022-11-27T02:06:22.956Z,37.3760
2022-11-27T02:07:25.337Z,37.4970
2022-11-27T02:08:27.603Z,37.5090
2022-11-27T02:09:29.946Z,37.4820
2022-11-27T02:10:32.210Z,37.4490
2022-11-27T02:11:34.526Z,37.3740
2022-11-27T02:12:36.833Z,37.3410
2022-11-27T02:13:39.151Z,37.3870
2022-11-27T02:14:46.584Z,37.3450
2022-11-27T02:15:43.784Z,37.4100
2022-11-27T02:16:46.037Z,37.4270
2022-11-27T02:17:48.344Z,37.4910
2022-11-27T02:18:48.468Z,37.4600
2022-11-27T02:19:50.806Z,37.4230
2022-11-27T02:20:53.037Z,37.4110
2022-11-27T02:21:55.309Z,37.4050
2022-11-27T02:22:55.459Z,37.4360
2022-11-27T02:23:57.758Z,37.3950
2022-11-27T02:25:00.200Z,37.3550
2022-11-27T02:26:02.345Z,37.3900
2022-11-27T02:27:04.603Z,37.3550
2022-11-27T02:28:06.891Z,37.3610
2022-11-27T02:29:09.190Z,37.3500
2022-11-27T02:30:09.405Z,37.3940
2022-11-27T02:31:11.722Z,37.4520
2022-11-27T02:32:13.964Z,37.4550
2022-11-27T02:33:16.248Z,37.4320
2022-11-27T02:34:18.517Z,37.3850
2022-11-27T02:35:20.951Z,37.4380
2022-11-27T02:36:23.118Z,37.4680
2022-11-27T02:37:23.263Z,37.4290
2022-11-27T02:38:25.520Z,37.4400
2022-11-27T02:39:27.769Z,37.5040
2022-11-27T02:40:30.125Z,37.4980
2022-11-27T02:41:30.260Z,37.4810
2022-11-27T02:42:32.742Z,37.4620
2022-11-27T02:43:34.998Z,37.4810
2022-11-27T02:44:35.183Z,37.4840
2022-11-27T02:45:37.626Z,37.5140
2022-11-27T02:46:39.822Z,37.5220
2022-11-27T02:47:42.150Z,37.4780
2022-11-27T02:48:44.506Z,37.5050
2022-11-27T02:49:46.794Z,37.4810
2022-11-27T02:50:49.148Z,37.4990
2022-11-27T02:51:51.404Z,37.4080
2022-11-27T02:52:53.743Z,37.4030
2022-11-27T02:53:56.053Z,37.4700
2022-11-27T02:54:58.333Z,37.4570
2022-11-27T02:56:00.649Z,37.4390
2022-11-27T02:57:02.924Z,37.3970
2022-11-27T02:58:03.097Z,37.4250
2022-11-27T02:59:05.192Z,37.4350
2022-11-27T03:00:07.457Z,37.4760
2022-11-27T03:01:09.783Z,37.4430
2022-11-27T03:02:12.119Z,37.4190
2022-11-27T03:03:14.325Z,37.3910
2022-11-27T03:04:16.494Z,37.3570
2022-11-27T03:05:18.761Z,37.4190
2022-11-27T03:06:18.994Z,37.4380
2022-11-27T03:07:21.195Z,37.3690
2022-11-27T03:08:23.434Z,37.4300
2022-11-27T03:09:25.730Z,37.3620
2022-11-27T03:10:25.815Z,37.3520
2022-11-27T03:11:28.131Z,37.4130
2022-11-27T03:12:30.422Z,37.3860
2022-11-27T03:13:32.849Z,37.3750
2022-11-27T03:14:35.027Z,37.3940
2022-11-27T03:15:37.377Z,37.4330
2022-11-27T03:16:39.639Z,37.4500
2022-11-27T03:17:39.784Z,37.4020
2022-11-27T03:18:42.076Z,37.4110
2022-11-27T03:19:44.387Z,37.4160
2022-11-27T03:20:46.668Z,37.4740
2022-11-27T03:21:49.090Z,37.4110
2022-11-27T03:22:51.269Z,37.3600
2022-11-27T03:23:53.579Z,37.3640
2022-11-27T03:24:53.717Z,37.3910
2022-11-27T03:25:56.001Z,37.4850
2022-11-27T03:26:58.313Z,37.4280
2022-11-27T03:28:00.577Z,37.4620
2022-11-27T03:29:02.984Z,37.5010
2022-11-27T03:30:05.164Z,37.4390
2022-11-27T03:31:07.481Z,37.4330
2022-11-27T03:32:07.643Z,37.4280
2022-11-27T03:33:09.704Z,37.4320
2022-11-27T03:34:11.901Z,37.3910
2022-11-27T03:35:14.117Z,37.3430
2022-11-27T03:36:16.310Z,37.3630
2022-11-27T03:37:18.567Z,37.3030
2022-11-27T03:38:20.765Z,37.3160
2022-11-27T03:39:22.999Z,37.2970
2022-11-27T03:40:25.336Z,37.2660
2022-11-27T03:41:25.510Z,37.2650
2022-11-27T03:42:28.011Z,37.2510
2022-11-27T03:43:30.195Z,37.3040
2022-11-27T03:44:30.518Z,37.3500
2022-11-27T03:45:32.750Z,37.4420
2022-11-27T03:46:35.187Z,37.4780
2022-11-27T03:47:35.435Z,37.4650
2022-11-27T03:48:37.660Z,37.4530
2022-11-27T03:49:39.992Z,37.4510
2022-11-27T03:50:42.339Z,37.4320
2022-11-27T03:51:44.676Z,37.4330
2022-11-27T03:52:47.051Z,37.3790
2022-11-27T03:53:49.292Z,37.3380
2022-11-27T03:54:51.613Z,37.3800
2022-11-27T03:55:54.073Z,37.3970
2022-11-27T03:56:56.288Z,37.3860
2022-11-27T03:57:58.733Z,37.4430
2022-11-27T03:59:00.864Z,37.3800
2022-11-27T04:00:03.236Z,37.3450
2022-11-27T04:01:03.240Z,37.3740
2022-11-27T04:02:05.616Z,37.4780
2022-11-27T04:03:07.900Z,37.4420
2022-11-27T04:04:10.158Z,37.4130
2022-11-27T04:05:10.231Z,37.4370
2022-11-27T04:06:12.535Z,37.4730
2022-11-27T04:07:14.866Z,37.5020
2022-11-27T04:08:17.265Z,37.5230
2022-11-27T04:09:19.437Z,37.5330
2022-11-27T04:10:21.755Z,37.5500
2022-11-27T04:11:24.075Z,37.5830
2022-11-27T04:12:26.400Z,37.6100
2022-11-27T04:13:28.837Z,37.5790
2022-11-27T04:14:31.061Z,37.5760
2022-11-27T04:15:33.514Z,37.5350
2022-11-27T04:16:35.755Z,37.5090
2022-11-27T04:17:38.008Z,37.4970
2022-11-27T04:18:40.488Z,37.5350
2022-11-27T04:19:42.699Z,37.5090
2022-11-27T04:20:45.010Z,37.4760
2022-11-27T04:21:47.322Z,37.4310
2022-11-27T04:22:49.640Z,37.4050
2022-11-27T04:23:52.032Z,37.4100
2022-11-27T04:24:54.371Z,37.3990
2022-11-27T04:25:56.718Z,37.4320
2022-11-27T04:26:56.911Z,37.3970
2022-11-27T04:27:59.286Z,37.4710
2022-11-27T04:29:01.647Z,37.4520
2022-11-27T04:30:01.815Z,37.4530
2022-11-27T04:31:04.329Z,37.4250
2022-11-27T04:32:06.511Z,37.3820
2022-11-27T04:33:08.819Z,37.3930
2022-11-27T04:34:11.273Z,37.4650
2022-11-27T04:35:13.473Z,37.4500
2022-11-27T04:36:15.820Z,37.4800
2022-11-27T04:37:18.151Z,37.3500
2022-11-27T04:38:20.494Z,37.3940
2022-11-27T04:39:20.707Z,37.3370
2022-11-27T04:40:23.006Z,37.4180
2022-11-27T04:41:25.327Z,37.4060
2022-11-27T04:42:27.655Z,37.4160
2022-11-27T04:43:29.997Z,37.3980
2022-11-27T04:44:32.351Z,37.4340
2022-11-27T04:45:34.661Z,37.4160
2022-11-27T04:46:37.190Z,37.4210
2022-11-27T04:47:39.379Z,37.3850
2022-11-27T04:48:39.594Z,37.3100
2022-11-27T04:49:41.954Z,37.2450
2022-11-27T04:50:44.222Z,37.2990
2022-11-27T04:51:46.536Z,37.2780
2022-11-27T04:52:48.877Z,37.3300
2022-11-27T04:53:51.211Z,37.3530
2022-11-27T04:54:59.647Z,37.3420
2022-11-27T04:55:55.919Z,37.3400
2022-11-27T04:56:58.262Z,37.4070
2022-11-27T04:57:58.458Z,37.3690
2022-11-27T04:59:00.833Z,37.3800
2022-11-27T05:00:03.177Z,37.3360
2022-11-27T05:01:05.645Z,37.3190
2022-11-27T05:02:07.961Z,37.3190
2022-11-27T05:03:10.257Z,37.3190
2022-11-27T05:04:10.373Z,37.4000
2022-11-27T05:05:12.858Z,37.2960
2022-11-27T05:06:15.009Z,37.3030
2022-11-27T05:07:17.357Z,37.2920
2022-11-27T05:08:19.677Z,37.2520
2022-11-27T05:09:22.035Z,37.3090
2022-11-27T05:10:24.400Z,37.2910
2022-11-27T05:11:26.710Z,37.2390
2022-11-27T05:12:29.022Z,37.2050
2022-11-27T05:13:29.239Z,37.2100
2022-11-27T05:14:31.576Z,37.1450
2022-11-27T05:15:33.908Z,37.1620
2022-11-27T05:16:36.205Z,37.0660
2022-11-27T05:17:42.272Z,37.1300
2022-11-27T05:18:38.724Z,37.2420
2022-11-27T05:19:40.920Z,37.2500
2022-11-27T05:20:43.260Z,37.1820
2022-11-27T05:21:45.536Z,37.1610
2022-11-27T05:22:47.789Z,37.1840
2022-11-27T05:23:50.102Z,37.2080
2022-11-27T05:24:50.214Z,37.1500
2022-11-27T05:25:52.504Z,37.2190
2022-11-27T05:26:54.767Z,37.2580
2022-11-27T05:27:57.095Z,37.2770
2022-11-27T05:28:59.402Z,37.1850
2022-11-27T05:30:01.700Z,37.1340
2022-11-27T05:31:04.166Z,37.1170
2022-11-27T05:32:04.197Z,37.1560
2022-11-27T05:33:06.533Z,37.0930
2022-11-27T05:34:09.004Z,37.0650
2022-11-27T05:35:09.067Z,37.0930
2022-11-27T05:36:11.440Z,37.0870
2022-11-27T05:37:17.996Z,37.1090
2022-11-27T05:38:16.054Z,37.1540
2022-11-27T05:39:18.371Z,37.1770
2022-11-27T05:40:20.719Z,37.1190
2022-11-27T05:41:23.044Z,37.0470
2022-11-27T05:42:25.301Z,37.0410
2022-11-27T05:43:27.571Z,37.0730
2022-11-27T05:44:29.849Z,37.0280
2022-11-27T05:45:29.976Z,36.9810
2022-11-27T05:46:32.316Z,37.0220
2022-11-27T05:47:34.527Z,37.0280
2022-11-27T05:48:36.774Z,37.0430
2022-11-27T05:49:37.039Z,37.0280
2022-11-27T05:50:39.211Z,37.0020
2022-11-27T05:53:05.373Z,36.7740
2022-11-27T05:54:07.521Z,36.6000
2022-11-27T05:55:09.764Z,36.5250
2022-11-27T05:56:12.034Z,36.5230
2022-11-27T05:57:14.308Z,36.5290
2022-11-27T05:58:16.722Z,36.5200
2022-11-27T05:59:18.871Z,36.4370
2022-11-27T06:00:19.007Z,36.4150
2022-11-27T06:01:21.304Z,36.4830
2022-11-27T06:02:28.982Z,36.4770
2022-11-27T06:03:25.981Z,36.6030
2022-11-27T06:04:28.175Z,36.6440
2022-11-27T06:05:30.616Z,36.5690
2022-11-27T06:06:30.640Z,36.4780
2022-11-27T06:07:33.012Z,36.4870
2022-11-27T06:08:35.296Z,36.4210
2022-11-27T06:09:37.565Z,36.4120
2022-11-27T06:10:39.875Z,36.4590
2022-11-27T06:11:42.196Z,36.4440
2022-11-27T06:12:42.452Z,36.4530
2022-11-27T06:13:44.706Z,36.4850
2022-11-27T06:14:46.942Z,36.4470
2022-11-27T06:15:49.256Z,36.5240
2022-11-27T06:16:51.596Z,36.5410
2022-11-27T06:17:53.836Z,36.5200
2022-11-27T06:18:56.176Z,36.4910
2022-11-27T06:19:56.260Z,36.5820
2022-11-27T06:20:58.621Z,36.6230
2022-11-27T06:22:00.768Z,36.5670
2022-11-27T06:23:03.017Z,36.5130
2022-11-27T06:24:05.307Z,36.5020
2022-11-27T06:25:07.526Z,36.4750
2022-11-27T06:26:09.797Z,36.4690
2022-11-27T06:27:12.085Z,36.4690
2022-11-27T06:28:12.184Z,36.5650
2022-11-27T06:29:14.469Z,36.6580
2022-11-27T06:30:16.718Z,36.6310
2022-11-27T06:31:19.053Z,36.5990
2022-11-27T06:32:21.250Z,36.6130
2022-11-27T06:33:23.473Z,36.6700
2022-11-27T06:34:25.798Z,36.7180
2022-11-27T06:35:28.027Z,36.7040
2022-11-27T06:36:28.282Z,36.7170
2022-11-27T06:37:30.432Z,36.7330
2022-11-27T06:38:32.716Z,36.7510
2022-11-27T06:39:35.040Z,36.6760
2022-11-27T06:40:37.278Z,36.7230
2022-11-27T06:41:39.562Z,36.6640
2022-11-27T06:42:41.837Z,36.6420
2022-11-27T06:43:51.609Z,36.6670
2022-11-27T06:44:53.894Z,36.8390
2022-11-27T06:45:54.166Z,37.0190
2022-11-27T06:46:56.335Z,37.0720
2022-11-27T06:47:58.607Z,37.0720
2022-11-27T06:49:00.891Z,37.1990
2022-11-27T06:50:01.026Z,37.1930
2022-11-27T06:51:03.251Z,37.1490
2022-11-27T06:52:05.676Z,37.2510
2022-11-27T06:53:07.818Z,37.2950
2022-11-27T06:54:07.913Z,37.3500
2022-11-27T06:55:10.239Z,37.2810
2022-11-27T06:56:12.467Z,37.2020
2022-11-27T06:57:14.755Z,37.2670
2022-11-27T06:58:14.882Z,37.3180
2022-11-27T06:59:17.127Z,37.2940
2022-11-27T07:00:20.037Z,37.3010
2022-11-27T07:01:21.788Z,37.0060
2022-11-27T07:02:21.889Z,36.5550
2022-11-27T07:03:24.147Z,36.7050
2022-11-27T07:04:26.373Z,36.3210
2022-11-27T07:05:28.703Z,36.7130
2022-11-27T07:06:28.796Z,36.6870
2022-11-27T07:07:31.272Z,37.0230
2022-11-27T07:08:33.305Z,36.0480
2022-11-27T07:09:35.593Z,36.1910
2022-11-27T07:10:35.750Z,36.3420
2022-11-27T07:11:38.019Z,36.7300
2022-11-27T07:12:40.290Z,36.7410
2022-11-27T07:13:42.579Z,36.8070
2022-11-27T07:14:42.838Z,36.7900
2022-11-27T07:15:45.026Z,36.8250
2022-11-27T07:16:47.278Z,36.8250
2022-11-27T07:17:49.537Z,36.9370
2022-11-27T07:18:49.687Z,37.0060
2022-11-27T07:19:51.947Z,37.0850
2022-11-27T07:20:56.620Z,36.9630
2022-11-27T07:21:56.518Z,36.8750
2022-11-27T07:22:56.765Z,36.5720
2022-11-27T07:23:58.931Z,36.7290
2022-11-27T07:25:01.226Z,36.7880
2022-11-27T07:26:03.536Z,36.9100
2022-11-27T07:27:03.596Z,37.1060
2022-11-27T07:28:05.852Z,37.2690
2022-11-27T07:29:08.159Z,37.4150
2022-11-27T07:30:10.492Z,37.5340
2022-11-27T07:31:12.962Z,37.5920
2022-11-27T07:32:15.149Z,37.6830
2022-11-27T07:33:17.484Z,37.6810
2022-11-27T07:34:21.722Z,37.7020
2022-11-27T07:35:22.139Z,37.6450
2022-11-27T07:36:24.498Z,37.6800
2022-11-27T07:37:26.761Z,37.7620
2022-11-27T07:38:29.181Z,37.7230
2022-11-27T07:40:00.329Z,37.8100
2022-11-27T07:40:33.680Z,37.9140
2022-11-27T07:41:36.049Z,38.0290
2022-11-27T07:42:39.180Z,37.9460
2022-11-27T07:43:38.306Z,37.9410
2022-11-27T07:44:41.006Z,37.8980
2022-11-27T07:45:42.893Z,37.9660
2022-11-27T07:46:45.152Z,37.9520
2022-11-27T07:47:45.253Z,38.0050
2022-11-27T07:48:47.560Z,38.0770
2022-11-27T07:49:49.871Z,38.1160
2022-11-27T07:50:52.172Z,38.2240
2022-11-27T07:51:52.371Z,38.1160
2022-11-27T07:52:54.636Z,38.0180
2022-11-27T07:53:57.077Z,38.0070
2022-11-27T07:54:59.186Z,38.0190
2022-11-27T07:56:01.457Z,38.0770
2022-11-27T07:57:03.822Z,38.1140
2022-11-27T07:58:06.029Z,38.1570
2022-11-27T07:59:06.145Z,38.2580
2022-11-27T08:00:08.475Z,38.3170
2022-11-27T08:01:10.920Z,38.3610
2022-11-27T08:02:13.138Z,38.3480
2022-11-27T08:03:15.424Z,38.2530
2022-11-27T08:04:17.773Z,38.3000
2022-11-27T08:05:20.123Z,38.2760
2022-11-27T08:06:20.206Z,38.1870
2022-11-27T08:07:22.643Z,38.1390
2022-11-27T08:08:24.885Z,38.2050
2022-11-27T08:09:25.221Z,38.1600
2022-11-27T08:10:27.533Z,38.0350
2022-11-27T08:11:29.796Z,37.7350
2022-11-27T08:12:29.982Z,36.8850
2022-11-27T08:13:32.269Z,35.2610
2022-11-27T08:14:34.579Z,36.2590
2022-11-27T08:15:36.870Z,36.8220
2022-11-27T08:16:37.095Z,37.1280
2022-11-27T08:17:39.353Z,37.3610
2022-11-27T08:18:41.592Z,37.2410
2022-11-27T08:19:43.842Z,37.3620
2022-11-27T08:20:46.132Z,37.2310
2022-11-27T08:21:48.418Z,37.3080
2022-11-27T08:22:50.861Z,37.2490
2022-11-27T08:23:50.862Z,37.2510
2022-11-27T08:24:53.234Z,37.2380
2022-11-27T08:25:55.372Z,36.9680
2022-11-27T08:26:57.704Z,36.2850
2022-11-27T08:27:57.895Z,36.2470
2022-11-27T08:29:00.169Z,36.3200
2022-11-27T08:30:02.458Z,36.4900
2022-11-27T08:31:04.785Z,36.4670
2022-11-27T08:32:07.174Z,36.2720
2022-11-27T08:33:09.399Z,36.3740
2022-11-27T08:34:11.651Z,36.6020
2022-11-27T08:35:11.773Z,36.4980
2022-11-27T08:36:18.146Z,36.4030
2022-11-27T08:37:16.314Z,36.0910
2022-11-27T08:38:18.676Z,35.9880
2022-11-27T08:39:20.966Z,35.9860
2022-11-27T08:40:23.336Z,36.0340
2022-11-27T08:41:25.523Z,36.1790
2022-11-27T08:42:25.691Z,36.3590
2022-11-27T08:44:09.451Z,36.1890
2022-11-27T08:45:08.966Z,36.0560
2022-11-27T08:46:11.270Z,36.0490
2022-11-27T08:47:13.504Z,36.0080
2022-11-27T08:48:13.626Z,36.1320
2022-11-27T08:49:16.047Z,36.1280
2022-11-27T08:50:18.249Z,36.2890
2022-11-27T08:51:20.549Z,36.2460
2022-11-27T08:52:22.886Z,36.1260
2022-11-27T08:53:25.211Z,36.2910
2022-11-27T08:54:25.532Z,36.2960
2022-11-27T08:55:27.907Z,36.2400
2022-11-27T08:56:30.008Z,36.2860
2022-11-27T08:57:32.255Z,36.2470
2022-11-27T08:58:34.513Z,36.2660
2022-11-27T08:59:36.910Z,36.2770
2022-11-27T09:00:39.081Z,36.2600
2022-11-27T09:01:39.174Z,36.1810
2022-11-27T09:02:41.430Z,36.2440
2022-11-27T09:03:43.757Z,36.3540
2022-11-27T09:04:45.994Z,36.2490
2022-11-27T09:05:48.214Z,36.2660
2022-11-27T09:06:52.934Z,35.8510
2022-11-27T09:07:52.711Z,35.9430
2022-11-27T09:08:54.898Z,35.8990
2022-11-27T09:09:57.230Z,35.9840
2022-11-27T09:10:59.485Z,36.0900
2022-11-27T09:11:59.470Z,36.1890
2022-11-27T09:13:01.748Z,36.1430
2022-11-27T09:14:04.048Z,36.1030
2022-11-27T09:15:06.403Z,36.1020
2022-11-27T09:16:08.732Z,36.1260
2022-11-27T09:17:11.048Z,36.0340
2022-11-27T09:18:11.195Z,35.3210
2022-11-27T09:19:13.428Z,35.3830
2022-11-27T09:20:15.852Z,35.6800
2022-11-27T09:21:17.966Z,35.8480
2022-11-27T09:22:20.174Z,35.9270
2022-11-27T09:23:22.386Z,35.8920
2022-11-27T09:24:24.645Z,35.8620
2022-11-27T09:25:26.951Z,35.9090
2022-11-27T09:26:29.264Z,35.9100
2022-11-27T09:27:29.285Z,35.9380
2022-11-27T09:28:31.983Z,35.9270
2022-11-27T09:29:33.852Z,35.9450
2022-11-27T09:30:36.176Z,35.9750
2022-11-27T09:31:38.603Z,35.9140
2022-11-27T09:32:40.814Z,35.9720
2022-11-27T09:33:43.167Z,35.9150
2022-11-27T09:34:43.595Z,35.6410
2022-11-27T09:35:45.832Z,35.5500
2022-11-27T09:36:48.023Z,35.4060
2022-11-27T09:37:50.344Z,35.0140
2022-11-27T09:38:52.623Z,35.1120
2022-11-27T09:39:52.795Z,35.3890
2022-11-27T09:40:59.188Z,35.3830
2022-11-27T09:41:57.533Z,35.5900
2022-11-27T09:42:59.717Z,35.5600
2022-11-27T09:44:02.031Z,35.6830
2022-11-27T09:45:04.349Z,35.6940
2022-11-27T09:46:04.603Z,35.6240
2022-11-27T09:47:06.840Z,35.6940
2022-11-27T09:48:09.158Z,35.6410
2022-11-27T09:49:11.435Z,35.6020
2022-11-27T09:51:18.338Z,35.6170
2022-11-27T09:52:20.404Z,35.4250
2022-11-27T09:53:22.605Z,35.0870
2022-11-27T09:54:24.836Z,35.2730
2022-11-27T09:55:27.065Z,35.3100
2022-11-27T09:56:29.324Z,35.3790
2022-11-27T09:57:31.671Z,35.2870
2022-11-27T09:58:33.857Z,35.2210
2022-11-27T09:59:36.119Z,35.2140
2022-11-27T10:00:36.250Z,35.1690
2022-11-27T10:01:47.480Z,35.1620
2022-11-27T10:02:40.988Z,35.2970
2022-11-27T10:03:43.109Z,35.1180
2022-11-27T10:05:12.483Z,35.1450
2022-11-27T10:05:47.577Z,35.2430
2022-11-27T10:06:49.820Z,35.2670
2022-11-27T10:07:52.139Z,35.1450
2022-11-27T10:08:52.162Z,35.0940
2022-11-27T10:09:54.420Z,35.0780
2022-11-27T10:10:56.702Z,35.0170
2022-11-27T10:11:59.012Z,34.9820
2022-11-27T10:13:01.348Z,34.9860
2022-11-27T10:14:03.482Z,35.0060
2022-11-27T10:15:05.741Z,34.9380
2022-11-27T10:16:08.052Z,34.9560
2022-11-27T10:17:10.320Z,34.9470
2022-11-27T10:18:10.293Z,34.9170
2022-11-27T10:19:12.495Z,34.7140
2022-11-27T10:20:14.667Z,34.7100
2022-11-27T10:21:16.906Z,34.8790
2022-11-27T10:22:21.082Z,34.8320
2022-11-27T10:23:21.491Z,34.8120
2022-11-27T10:24:23.707Z,35.0570
2022-11-27T10:25:25.942Z,35.0230
2022-11-27T10:26:28.177Z,35.0320
2022-11-27T10:27:30.554Z,35.2130
2022-11-27T10:28:30.622Z,35.2070
2022-11-27T10:29:32.734Z,35.2350
2022-11-27T10:30:34.994Z,35.2610
2022-11-27T10:31:37.372Z,35.1460
2022-11-27T10:32:56.313Z,33.9370
2022-11-27T10:33:41.859Z,34.4110
2022-11-27T10:34:44.171Z,34.6010
2022-11-27T10:35:46.447Z,34.7600
2022-11-27T10:36:46.553Z,34.8150
2022-11-27T10:37:48.868Z,34.9390
2022-11-27T10:38:51.112Z,35.0910
2022-11-27T10:39:53.412Z,35.0910
2022-11-27T10:40:55.689Z,34.9300
2022-11-27T10:41:57.949Z,35.1710
2022-11-27T10:43:00.347Z,35.2180
2022-11-27T10:44:02.602Z,34.9470
2022-11-27T10:45:02.623Z,34.5280
2022-11-27T10:46:04.974Z,34.6100
2022-11-27T10:47:07.185Z,34.8940
2022-11-27T10:48:09.501Z,34.9040
2022-11-27T10:49:11.734Z,35.1300
2022-11-27T10:50:13.989Z,34.9820
2022-11-27T10:51:16.209Z,35.1800
2022-11-27T10:52:18.464Z,35.0600
2022-11-27T10:53:20.708Z,35.1940
2022-11-27T10:54:20.747Z,35.2130
2022-11-27T10:55:23.012Z,33.8870
2022-11-27T10:56:25.323Z,33.9830
2022-11-27T10:57:27.603Z,34.2470
2022-11-27T10:58:30.010Z,34.5930
2022-11-27T10:59:37.744Z,34.7180
2022-11-27T11:00:34.429Z,35.0140
2022-11-27T11:01:36.638Z,35.1960
2022-11-27T11:02:39.068Z,35.1080
2022-11-27T11:03:38.917Z,35.0700
2022-11-27T11:04:41.138Z,35.1500
2022-11-27T11:06:12.211Z,35.2070
2022-11-27T11:06:45.656Z,35.2770
2022-11-27T11:07:48.037Z,35.3570
2022-11-27T11:08:50.313Z,35.3190
2022-11-27T11:09:52.585Z,35.2630
2022-11-27T11:10:52.757Z,35.2620
2022-11-27T11:11:55.028Z,35.1580
2022-11-27T11:12:57.324Z,35.1930
2022-11-27T11:13:59.669Z,35.1450
2022-11-27T11:15:01.930Z,34.9600
2022-11-27T11:16:04.438Z,35.1220
2022-11-27T11:17:06.668Z,35.2570
2022-11-27T11:18:06.718Z,35.3090
2022-11-27T11:19:09.078Z,35.1270
2022-11-27T11:20:11.351Z,35.3500
2022-11-27T11:21:13.668Z,35.3230
2022-11-27T11:22:15.971Z,35.3020
2022-11-27T11:23:18.275Z,35.3870
2022-11-27T11:24:18.444Z,35.2700
2022-11-27T11:25:20.718Z,35.2280
2022-11-27T11:26:22.980Z,35.4090
2022-11-27T11:27:25.234Z,35.1970
2022-11-27T11:28:27.459Z,35.3840
2022-11-27T11:29:29.756Z,35.4760
2022-11-27T11:30:32.027Z,35.4230
2022-11-27T11:31:32.318Z,35.4430
2022-11-27T11:32:34.346Z,35.4410
2022-11-27T11:33:36.594Z,35.5010
2022-11-27T11:34:39.298Z,35.3780
2022-11-27T11:35:41.119Z,35.4710
2022-11-27T11:36:43.319Z,35.4250
2022-11-27T11:37:45.574Z,35.4190
2022-11-27T11:38:47.822Z,35.5650
2022-11-27T11:39:50.103Z,35.6460
2022-11-27T11:40:52.270Z,35.4360
2022-11-27T11:41:54.501Z,35.4690
2022-11-27T11:42:54.584Z,35.4290
2022-11-27T11:43:56.768Z,35.4020
2022-11-27T11:44:59.112Z,35.4300
2022-11-27T11:46:01.283Z,35.5360
2022-11-27T11:47:03.524Z,35.5710
2022-11-27T11:48:05.669Z,35.6930
2022-11-27T11:49:07.916Z,35.5380
2022-11-27T11:50:10.194Z,35.6240
2022-11-27T11:51:12.410Z,35.5590
2022-11-27T11:52:14.654Z,35.5810
2022-11-27T11:53:16.897Z,35.6270
2022-11-27T11:54:17.025Z,35.5410
2022-11-27T11:55:19.426Z,35.7040
2022-11-27T11:56:21.510Z,35.4210
2022-11-27T11:58:56.197Z,35.5550
2022-11-27T11:59:56.279Z,35.5490
2022-11-27T12:01:25.370Z,35.5550
2022-11-27T12:02:00.914Z,35.7370
2022-11-27T12:03:03.236Z,35.7160
2022-11-27T12:04:05.403Z,35.7040
2022-11-27T12:05:07.588Z,35.8520
2022-11-27T12:06:09.945Z,35.9020
2022-11-27T12:07:09.913Z,35.8540
2022-11-27T12:08:12.286Z,35.7610
2022-11-27T12:09:12.290Z,35.6560
2022-11-27T12:10:14.531Z,35.7570
2022-11-27T12:11:16.925Z,35.7460
2022-11-27T12:12:19.027Z,35.7360
2022-11-27T12:13:21.266Z,35.6660
2022-11-27T12:14:23.476Z,35.7250
2022-11-27T12:15:25.698Z,35.8100
2022-11-27T12:16:28.054Z,35.8010
2022-11-27T12:17:30.253Z,35.6370
2022-11-27T12:18:32.644Z,35.6030
2022-11-27T12:19:32.659Z,35.6710
2022-11-27T12:20:34.908Z,35.4630
2022-11-27T12:21:37.226Z,35.1480
2022-11-27T12:22:39.408Z,35.1830
2022-11-27T12:23:41.555Z,35.3080
2022-11-27T12:24:43.724Z,35.5130
2022-11-27T12:25:45.908Z,35.5320
2022-11-27T12:26:48.268Z,35.6310
2022-11-27T12:27:50.409Z,35.7990
2022-11-27T12:28:58.809Z,35.4710
2022-11-27T12:29:52.799Z,35.4950
2022-11-27T12:30:55.069Z,35.4930
2022-11-27T12:31:57.420Z,35.5850
2022-11-27T12:32:59.586Z,35.5680
2022-11-27T12:34:02.039Z,35.5260